Red Bay, Canada
Current Conditions -  °F | °C
As of 2:13 AM on Friday 19 Dec 2014 (Local Time) from CYAY Reporting Station
Haze Haze  
Wind Chill: 22°   Ceiling: 2400
Heat Index: 32°   Visibility: 1.7mi
Dew Point: 32°   Wind: 15mph
Humidity: 100%   Direction: 30°NNE
Pressure: 29.58"   Gusts: NA
Location:  51.73°N, 56.42°W
Report Text: CYAY 190613Z AUTO 03013KT 1 3/4SM BR FEW003 SCT013 OVC024 00/00 A2958 RMK SLP018
Loading
Personal Weather Stations






























Interactive Weather Map New forecast layout! Learn more

10-Day Weather Forecast

Advertisements
Track Severe Weather on mobile